This is the latest recevied weather packets stored in our database for station/object KB9GXK. If no packets are shown the sender has not sent any weather packets the latest 10 day(s).
| Time | Temp. | Humidity | Pressure | Rain* | Wind** | Luminosity | Snow |
|---|---|---|---|---|---|---|---|
| 1778086948 | 13.89° C | 34% | 1014.2 hPa | 0 mm | - | 363 W/m² | - |
| 1778086647 | 12.78° C | 35% | 1014.4 hPa | 0 mm | - | 977 W/m² | - |
| 1778086343 | 13.33° C | 35% | 1014.4 hPa | 0 mm | - | 270 W/m² | - |
| 1778086041 | 13.33° C | 34% | 1014.1 hPa | 0 mm | - | 284 W/m² | - |
| 1778085737 | 12.78° C | 37% | 1014.2 hPa | 0 mm | - | 422 W/m² | - |
| 1778085434 | 12.22° C | 37% | 1014.2 hPa | 0 mm | - | 716 W/m² | - |
| 1778085129 | 12.22° C | 37% | 1014.2 hPa | 0 mm | - | 453 W/m² | - |
| 1778084825 | 12.22° C | 35% | 1014.4 hPa | 0 mm | - | 254 W/m² | - |
| 1778084523 | 12.22° C | 37% | 1014.3 hPa | 0 mm | - | 282 W/m² | - |
| 1778084220 | 12.22° C | 36% | 1014.3 hPa | 0 mm | - | 174 W/m² | - |
| 1778083916 | 13.33° C | 36% | 1014.2 hPa | 0 mm | - | 163 W/m² | - |
| 1778083614 | 12.78° C | 37% | 1014.2 hPa | 0 mm | - | 403 W/m² | - |
| 1778083311 | 12.22° C | 38% | 1014.3 hPa | 0 mm | - | 684 W/m² | - |
| 1778083010 | 12.22° C | 37% | 1014.2 hPa | 0 mm | - | 403 W/m² | - |
| 1778082706 | 12.78° C | 38% | 1014.4 hPa | 0 mm | - | 161 W/m² | - |
| 1778081568 | 12.78° C | 39% | 1014.3 hPa | 0 mm | - | 200 W/m² | - |
| 1778081265 | 12.78° C | 39% | 1014.3 hPa | 0 mm | - | 366 W/m² | - |
| 1778080963 | 12.78° C | 39% | 1014.3 hPa | 0 mm | - | 253 W/m² | - |
| 1778080662 | 12.78° C | 39% | 1014.3 hPa | 0 mm | - | 482 W/m² | - |
| 1778080358 | 12.78° C | 39% | 1014.2 hPa | 0 mm | - | 528 W/m² | - |
| 1778080054 | 12.78° C | 39% | 1014.2 hPa | 0 mm | - | 565 W/m² | - |
| 1778079752 | 11.67° C | 40% | 1014.5 hPa | 0 mm | - | 451 W/m² | - |
| 1778079449 | 11.67° C | 41% | 1014.5 hPa | 0 mm | - | 355 W/m² | - |
| 1778079144 | 11.67° C | 39% | 1014.5 hPa | 0 mm | - | 392 W/m² | - |
| 1778078842 | 12.22° C | 39% | 1014.6 hPa | 0 mm | - | 338 W/m² | - |
* Rain latest hour (hover to see other rain measurements)
** Current wind speed in m/s (hover to see current wind gust speed)